sensor_id;sensor_type;location;lat;lon;timestamp;pressure;altitude;pressure_sealevel;temperature;humidity
79686;BME280;69153;47.918;11.428;2023-05-07T00:01:48;95096.06;;;14.65;59.08
79686;BME280;69153;47.918;11.428;2023-05-07T00:04:13;95090.44;;;14.54;59.53
79686;BME280;69153;47.918;11.428;2023-05-07T00:06:39;95078.44;;;14.49;59.60
79686;BME280;69153;47.918;11.428;2023-05-07T00:09:06;95088.97;;;14.53;59.55
79686;BME280;69153;47.918;11.428;2023-05-07T00:11:33;95087.78;;;14.54;59.41
79686;BME280;69153;47.918;11.428;2023-05-07T00:13:58;95092.38;;;14.53;59.24
79686;BME280;69153;47.918;11.428;2023-05-07T00:16:24;95094.28;;;14.62;59.05
79686;BME280;69153;47.918;11.428;2023-05-07T00:18:50;95094.28;;;14.62;59.35
79686;BME280;69153;47.918;11.428;2023-05-07T00:21:15;95097.84;;;14.59;59.29
79686;BME280;69153;47.918;11.428;2023-05-07T00:23:41;95094.72;;;14.51;59.40
79686;BME280;69153;47.918;11.428;2023-05-07T00:26:06;95092.78;;;14.43;59.59
79686;BME280;69153;47.918;11.428;2023-05-07T00:28:32;95086.56;;;14.46;59.41
79686;BME280;69153;47.918;11.428;2023-05-07T00:30:57;95086.75;;;14.51;59.28
79686;BME280;69153;47.918;11.428;2023-05-07T00:33:23;95086.13;;;14.47;59.46
79686;BME280;69153;47.918;11.428;2023-05-07T00:35:48;95083.78;;;14.49;59.14
79686;BME280;69153;47.918;11.428;2023-05-07T00:38:14;95086.88;;;14.48;59.28
79686;BME280;69153;47.918;11.428;2023-05-07T00:40:39;95083.78;;;14.49;59.22
79686;BME280;69153;47.918;11.428;2023-05-07T00:43:05;95079.19;;;14.50;59.10
79686;BME280;69153;47.918;11.428;2023-05-07T00:45:33;95075.03;;;14.49;59.08
79686;BME280;69153;47.918;11.428;2023-05-07T00:48:00;95080.19;;;14.43;59.36
79686;BME280;69153;47.918;11.428;2023-05-07T00:50:28;95081.09;;;14.40;59.55
79686;BME280;69153;47.918;11.428;2023-05-07T00:52:54;95075.16;;;14.36;59.49
79686;BME280;69153;47.918;11.428;2023-05-07T00:55:20;95079.28;;;14.37;59.50
79686;BME280;69153;47.918;11.428;2023-05-07T00:57:46;95073.97;;;14.37;59.37
79686;BME280;69153;47.918;11.428;2023-05-07T01:00:12;95079.59;;;14.39;59.22
79686;BME280;69153;47.918;11.428;2023-05-07T01:02:39;95077.06;;;14.36;59.10
79686;BME280;69153;47.918;11.428;2023-05-07T01:05:06;95080.16;;;14.34;59.17
79686;BME280;69153;47.918;11.428;2023-05-07T01:07:34;95087.28;;;14.28;59.05
79686;BME280;69153;47.918;11.428;2023-05-07T01:10:02;95081.34;;;14.24;59.38
79686;BME280;69153;47.918;11.428;2023-05-07T01:12:30;95085.06;;;14.26;59.03
79686;BME280;69153;47.918;11.428;2023-05-07T01:14:56;95079.00;;;14.26;59.10
79686;BME280;69153;47.918;11.428;2023-05-07T01:17:22;95080.31;;;14.21;59.22
79686;BME280;69153;47.918;11.428;2023-05-07T01:19:48;95082.97;;;14.12;59.53
79686;BME280;69153;47.918;11.428;2023-05-07T01:22:16;95072.88;;;14.16;58.85
79686;BME280;69153;47.918;11.428;2023-05-07T01:24:47;95075.09;;;14.09;59.15
79686;BME280;69153;47.918;11.428;2023-05-07T01:27:12;95071.69;;;13.99;59.08
79686;BME280;69153;47.918;11.428;2023-05-07T01:29:38;95067.97;;;13.97;58.94
79686;BME280;69153;47.918;11.428;2023-05-07T01:32:05;95071.38;;;13.88;59.40
79686;BME280;69153;47.918;11.428;2023-05-07T01:34:33;95068.69;;;13.88;59.00
79686;BME280;69153;47.918;11.428;2023-05-07T01:37:00;95069.13;;;13.86;59.18
79686;BME280;69153;47.918;11.428;2023-05-07T01:39:28;95070.31;;;13.85;58.92
79686;BME280;69153;47.918;11.428;2023-05-07T01:41:58;95077.69;;;13.81;59.28
79686;BME280;69153;47.918;11.428;2023-05-07T01:44:25;95065.88;;;13.82;59.20
79686;BME280;69153;47.918;11.428;2023-05-07T01:46:53;95068.09;;;13.84;59.17
79686;BME280;69153;47.918;11.428;2023-05-07T01:49:20;95066.59;;;13.83;59.45
79686;BME280;69153;47.918;11.428;2023-05-07T01:51:46;95064.56;;;13.87;59.37
79686;BME280;69153;47.918;11.428;2023-05-07T01:54:11;95056.13;;;13.88;59.53
79686;BME280;69153;47.918;11.428;2023-05-07T01:56:37;95058.50;;;13.86;59.83
79686;BME280;69153;47.918;11.428;2023-05-07T01:59:02;95055.97;;;13.92;59.27
79686;BME280;69153;47.918;11.428;2023-05-07T02:01:28;95050.63;;;13.92;59.29
79686;BME280;69153;47.918;11.428;2023-05-07T02:03:53;95058.94;;;13.94;59.33
79686;BME280;69153;47.918;11.428;2023-05-07T02:06:19;95052.13;;;13.93;59.33
79686;BME280;69153;47.918;11.428;2023-05-07T02:08:45;95054.78;;;13.93;59.00
79686;BME280;69153;47.918;11.428;2023-05-07T02:11:11;95058.31;;;13.90;59.54
79686;BME280;69153;47.918;11.428;2023-05-07T02:13:36;95062.63;;;13.87;59.41
79686;BME280;69153;47.918;11.428;2023-05-07T02:16:03;95057.13;;;13.82;59.36
79686;BME280;69153;47.918;11.428;2023-05-07T02:18:28;95063.03;;;13.77;59.58
79686;BME280;69153;47.918;11.428;2023-05-07T02:20:54;95059.63;;;13.76;59.59
79686;BME280;69153;47.918;11.428;2023-05-07T02:23:19;95065.41;;;13.75;59.61
79686;BME280;69153;47.918;11.428;2023-05-07T02:25:45;95064.66;;;13.74;59.86
79686;BME280;69153;47.918;11.428;2023-05-07T02:28:11;95064.66;;;13.74;59.73
79686;BME280;69153;47.918;11.428;2023-05-07T02:30:38;95059.19;;;13.78;59.63
79686;BME280;69153;47.918;11.428;2023-05-07T02:33:04;95055.78;;;13.77;60.05
79686;BME280;69153;47.918;11.428;2023-05-07T02:35:29;95061.69;;;13.72;59.78
79686;BME280;69153;47.918;11.428;2023-05-07T02:37:55;95065.41;;;13.75;59.79
79686;BME280;69153;47.918;11.428;2023-05-07T02:40:20;95066.59;;;13.74;59.87
79686;BME280;69153;47.918;11.428;2023-05-07T02:42:46;95065.97;;;13.70;59.42
79686;BME280;69153;47.918;11.428;2023-05-07T02:45:11;95069.94;;;13.65;59.68
79686;BME280;69153;47.918;11.428;2023-05-07T02:47:37;95072.44;;;13.59;59.98
79686;BME280;69153;47.918;11.428;2023-05-07T02:50:03;95067.25;;;13.56;59.92
79686;BME280;69153;47.918;11.428;2023-05-07T02:52:28;95067.66;;;13.45;60.05
79686;BME280;69153;47.918;11.428;2023-05-07T02:54:54;95071.50;;;13.44;60.01
79686;BME280;69153;47.918;11.428;2023-05-07T02:57:20;95070.09;;;13.31;60.64
79686;BME280;69153;47.918;11.428;2023-05-07T02:59:45;95065.53;;;13.31;60.37
79686;BME280;69153;47.918;11.428;2023-05-07T03:02:11;95066.59;;;13.34;60.27
79686;BME280;69153;47.918;11.428;2023-05-07T03:04:36;95062.75;;;13.35;60.31
79686;BME280;69153;47.918;11.428;2023-05-07T03:07:02;95059.59;;;13.27;60.48
79686;BME280;69153;47.918;11.428;2023-05-07T03:09:27;95066.09;;;13.26;60.95
79686;BME280;69153;47.918;11.428;2023-05-07T03:11:52;95065.34;;;13.26;61.12
79686;BME280;69153;47.918;11.428;2023-05-07T03:14:18;95060.03;;;13.26;61.04
79686;BME280;69153;47.918;11.428;2023-05-07T03:16:43;95058.09;;;13.26;61.00
79686;BME280;69153;47.918;11.428;2023-05-07T03:19:09;95056.50;;;13.29;60.57
79686;BME280;69153;47.918;11.428;2023-05-07T03:21:34;95053.41;;;13.30;60.53
79686;BME280;69153;47.918;11.428;2023-05-07T03:24:00;95051.78;;;13.33;60.86
79686;BME280;69153;47.918;11.428;2023-05-07T03:26:26;95044.84;;;13.35;60.51
79686;BME280;69153;47.918;11.428;2023-05-07T03:28:51;95058.91;;;13.36;60.57
79686;BME280;69153;47.918;11.428;2023-05-07T03:31:17;95055.94;;;13.34;61.38
79686;BME280;69153;47.918;11.428;2023-05-07T03:33:53;95059.34;;;13.34;61.28
79686;BME280;69153;47.918;11.428;2023-05-07T03:36:20;95060.63;;;13.30;61.89
79686;BME280;69153;47.918;11.428;2023-05-07T03:38:46;95057.97;;;13.30;62.06
79686;BME280;69153;47.918;11.428;2023-05-07T03:41:12;95058.09;;;13.26;62.45
79686;BME280;69153;47.918;11.428;2023-05-07T03:43:37;95058.09;;;13.26;62.24
79686;BME280;69153;47.918;11.428;2023-05-07T03:46:03;95052.09;;;13.35;61.52
79686;BME280;69153;47.918;11.428;2023-05-07T03:48:28;95058.44;;;13.37;61.93
79686;BME280;69153;47.918;11.428;2023-05-07T03:50:54;95059.19;;;13.38;61.66
79686;BME280;69153;47.918;11.428;2023-05-07T03:53:19;95064.06;;;13.39;61.25
79686;BME280;69153;47.918;11.428;2023-05-07T03:55:45;95059.50;;;13.40;60.53
79686;BME280;69153;47.918;11.428;2023-05-07T03:58:10;95061.56;;;13.36;60.29
79686;BME280;69153;47.918;11.428;2023-05-07T04:00:36;95065.41;;;13.35;60.06
79686;BME280;69153;47.918;11.428;2023-05-07T04:03:04;95069.66;;;13.32;59.80
79686;BME280;69153;47.918;11.428;2023-05-07T04:05:30;95069.19;;;13.24;59.78
79686;BME280;69153;47.918;11.428;2023-05-07T04:07:57;95068.41;;;13.15;60.30
79686;BME280;69153;47.918;11.428;2023-05-07T04:10:23;95073.94;;;13.08;60.87
79686;BME280;69153;47.918;11.428;2023-05-07T04:12:48;95075.38;;;13.00;60.87
79686;BME280;69153;47.918;11.428;2023-05-07T04:15:14;95075.38;;;13.00;60.78
79686;BME280;69153;47.918;11.428;2023-05-07T04:17:39;95078.53;;;13.07;60.43
79686;BME280;69153;47.918;11.428;2023-05-07T04:20:08;95083.28;;;13.12;60.21
79686;BME280;69153;47.918;11.428;2023-05-07T04:22:34;95085.94;;;13.12;60.41
79686;BME280;69153;47.918;11.428;2023-05-07T04:25:00;95098.06;;;13.13;60.20
79686;BME280;69153;47.918;11.428;2023-05-07T04:27:25;95086.16;;;13.18;59.83
79686;BME280;69153;47.918;11.428;2023-05-07T04:29:51;95095.63;;;13.19;60.09
79686;BME280;69153;47.918;11.428;2023-05-07T04:32:21;95089.88;;;13.20;60.14
79686;BME280;69153;47.918;11.428;2023-05-07T04:34:46;95092.97;;;13.19;60.44
79686;BME280;69153;47.918;11.428;2023-05-07T04:37:12;95091.34;;;13.21;60.13
79686;BME280;69153;47.918;11.428;2023-05-07T04:39:37;95094.00;;;13.21;60.00
79686;BME280;69153;47.918;11.428;2023-05-07T04:42:03;95092.09;;;13.22;60.07
79686;BME280;69153;47.918;11.428;2023-05-07T04:44:28;95094.44;;;13.20;60.22
79686;BME280;69153;47.918;11.428;2023-05-07T04:46:56;95091.94;;;13.26;60.29
79686;BME280;69153;47.918;11.428;2023-05-07T04:49:21;95089.28;;;13.26;60.37
79686;BME280;69153;47.918;11.428;2023-05-07T04:51:47;95093.13;;;13.24;61.23
79686;BME280;69153;47.918;11.428;2023-05-07T04:54:12;95099.34;;;13.21;61.30
79686;BME280;69153;47.918;11.428;2023-05-07T04:56:38;95097.41;;;13.22;61.25
79686;BME280;69153;47.918;11.428;2023-05-07T04:59:03;95100.88;;;13.32;61.11
79686;BME280;69153;47.918;11.428;2023-05-07T05:01:28;95111.06;;;13.33;61.54
79686;BME280;69153;47.918;11.428;2023-05-07T05:03:54;95111.81;;;13.34;61.80
79686;BME280;69153;47.918;11.428;2023-05-07T05:06:20;95106.66;;;13.39;61.74
79686;BME280;69153;47.918;11.428;2023-05-07T05:08:45;95101.81;;;13.47;61.58
79686;BME280;69153;47.918;11.428;2023-05-07T05:11:10;95109.84;;;13.56;61.69
79686;BME280;69153;47.918;11.428;2023-05-07T05:13:36;95116.09;;;13.62;61.32
79686;BME280;69153;47.918;11.428;2023-05-07T05:16:01;95105.72;;;13.64;61.34
79686;BME280;69153;47.918;11.428;2023-05-07T05:18:27;95108.56;;;13.70;61.07
79686;BME280;69153;47.918;11.428;2023-05-07T05:20:52;95106.22;;;13.72;60.96
79686;BME280;69153;47.918;11.428;2023-05-07T05:23:18;95103.28;;;13.79;61.00
79686;BME280;69153;47.918;11.428;2023-05-07T05:25:44;95105.06;;;13.82;61.19
79686;BME280;69153;47.918;11.428;2023-05-07T05:28:09;95112.06;;;13.88;61.56
79686;BME280;69153;47.918;11.428;2023-05-07T05:30:35;95108.66;;;13.88;62.00
79686;BME280;69153;47.918;11.428;2023-05-07T05:33:00;95111.22;;;14.01;61.93
79686;BME280;69153;47.918;11.428;2023-05-07T05:35:26;95109.56;;;14.03;62.04
79686;BME280;69153;47.918;11.428;2023-05-07T05:37:51;95100.56;;;14.10;62.22
79686;BME280;69153;47.918;11.428;2023-05-07T05:40:17;95108.69;;;14.15;62.43
79686;BME280;69153;47.918;11.428;2023-05-07T05:42:42;95107.41;;;14.29;62.45
79686;BME280;69153;47.918;11.428;2023-05-07T05:45:08;95101.97;;;14.42;62.21
79686;BME280;69153;47.918;11.428;2023-05-07T05:47:34;95098.44;;;14.54;61.98
79686;BME280;69153;47.918;11.428;2023-05-07T05:49:59;95101.53;;;14.61;61.78
79686;BME280;69153;47.918;11.428;2023-05-07T05:52:25;95090.28;;;14.76;62.02
79686;BME280;69153;47.918;11.428;2023-05-07T05:54:50;95094.72;;;14.88;62.07
79686;BME280;69153;47.918;11.428;2023-05-07T05:57:15;95095.44;;;14.97;61.93
79686;BME280;69153;47.918;11.428;2023-05-07T05:59:41;95098.72;;;15.01;61.52
79686;BME280;69153;47.918;11.428;2023-05-07T06:02:07;95102.88;;;15.02;62.26
79686;BME280;69153;47.918;11.428;2023-05-07T06:04:32;95106.41;;;15.09;62.33
79686;BME280;69153;47.918;11.428;2023-05-07T06:06:57;95106.69;;;15.29;62.11
79686;BME280;69153;47.918;11.428;2023-05-07T06:09:23;95110.19;;;15.44;62.07
79686;BME280;69153;47.918;11.428;2023-05-07T06:11:48;95107.47;;;15.62;61.06
79686;BME280;69153;47.918;11.428;2023-05-07T06:14:14;95103.13;;;15.74;60.89
79686;BME280;69153;47.918;11.428;2023-05-07T06:16:39;95103.38;;;15.85;60.52
79686;BME280;69153;47.918;11.428;2023-05-07T06:19:05;95100.50;;;15.98;60.61
79686;BME280;69153;47.918;11.428;2023-05-07T06:21:30;95111.03;;;16.01;60.97
79686;BME280;69153;47.918;11.428;2023-05-07T06:23:56;95109.19;;;16.17;60.53
79686;BME280;69153;47.918;11.428;2023-05-07T06:26:22;95108.22;;;16.29;59.84
79686;BME280;69153;47.918;11.428;2023-05-07T06:28:47;95106.94;;;16.39;59.49
79686;BME280;69153;47.918;11.428;2023-05-07T06:31:15;95106.63;;;16.46;59.28
79686;BME280;69153;47.918;11.428;2023-05-07T06:33:42;95105.53;;;16.53;59.15
79686;BME280;69153;47.918;11.428;2023-05-07T06:36:07;95105.44;;;16.62;59.22
79686;BME280;69153;47.918;11.428;2023-05-07T06:38:33;95106.63;;;16.70;58.79
79686;BME280;69153;47.918;11.428;2023-05-07T06:40:58;95106.91;;;16.72;58.17
79686;BME280;69153;47.918;11.428;2023-05-07T06:43:24;95100.59;;;16.60;58.74
79686;BME280;69153;47.918;11.428;2023-05-07T06:45:49;95102.75;;;16.47;59.67
79686;BME280;69153;47.918;11.428;2023-05-07T06:48:15;95100.19;;;16.29;59.57
79686;BME280;69153;47.918;11.428;2023-05-07T06:50:41;95101.81;;;16.50;59.06
79686;BME280;69153;47.918;11.428;2023-05-07T06:53:07;95093.06;;;16.88;57.92
79686;BME280;69153;47.918;11.428;2023-05-07T06:55:32;95101.84;;;16.89;57.86
79686;BME280;69153;47.918;11.428;2023-05-07T06:57:57;95100.97;;;17.06;58.08
79686;BME280;69153;47.918;11.428;2023-05-07T07:00:26;95103.28;;;17.28;57.98
79686;BME280;69153;47.918;11.428;2023-05-07T07:02:52;95099.38;;;17.44;57.42
79686;BME280;69153;47.918;11.428;2023-05-07T07:05:18;95101.31;;;17.58;55.65
79686;BME280;69153;47.918;11.428;2023-05-07T07:07:43;95089.13;;;17.72;55.09
79686;BME280;69153;47.918;11.428;2023-05-07T07:10:09;95101.88;;;17.77;55.07
79686;BME280;69153;47.918;11.428;2023-05-07T07:12:34;95099.56;;;17.84;54.54
79686;BME280;69153;47.918;11.428;2023-05-07T07:15:00;95095.97;;;17.73;55.31
79686;BME280;69153;47.918;11.428;2023-05-07T07:17:25;95104.19;;;17.84;55.23
79686;BME280;69153;47.918;11.428;2023-05-07T07:19:51;95105.50;;;18.09;54.63
79686;BME280;69153;47.918;11.428;2023-05-07T07:22:16;95102.13;;;18.29;55.03
79686;BME280;69153;47.918;11.428;2023-05-07T07:24:42;95104.34;;;18.30;54.83
79686;BME280;69153;47.918;11.428;2023-05-07T07:27:07;95103.88;;;18.52;54.52
79686;BME280;69153;47.918;11.428;2023-05-07T07:29:32;95095.31;;;18.68;54.22
79686;BME280;69153;47.918;11.428;2023-05-07T07:31:58;95103.19;;;18.77;54.82
79686;BME280;69153;47.918;11.428;2023-05-07T07:34:23;95100.16;;;18.90;54.73
79686;BME280;69153;47.918;11.428;2023-05-07T07:36:49;95103.22;;;19.03;54.16
79686;BME280;69153;47.918;11.428;2023-05-07T07:39:14;95095.28;;;19.14;52.78
79686;BME280;69153;47.918;11.428;2023-05-07T07:41:40;95096.31;;;19.22;52.28
79686;BME280;69153;47.918;11.428;2023-05-07T07:44:05;95096.44;;;19.34;52.95
79686;BME280;69153;47.918;11.428;2023-05-07T07:46:33;95094.25;;;19.38;53.30
79686;BME280;69153;47.918;11.428;2023-05-07T07:48:58;95094.22;;;19.58;53.39
79686;BME280;69153;47.918;11.428;2023-05-07T07:51:25;95097.25;;;19.71;53.94
79686;BME280;69153;47.918;11.428;2023-05-07T07:53:51;95089.00;;;19.80;51.11
79686;BME280;69153;47.918;11.428;2023-05-07T07:56:17;95091.91;;;19.77;52.59
79686;BME280;69153;47.918;11.428;2023-05-07T07:58:42;95092.47;;;19.55;51.81
79686;BME280;69153;47.918;11.428;2023-05-07T08:01:08;95096.50;;;19.71;51.67
79686;BME280;69153;47.918;11.428;2023-05-07T08:03:33;95092.78;;;19.62;51.76
79686;BME280;69153;47.918;11.428;2023-05-07T08:05:59;95090.00;;;19.51;50.83
79686;BME280;69153;47.918;11.428;2023-05-07T08:08:24;95092.91;;;19.79;52.29
79686;BME280;69153;47.918;11.428;2023-05-07T08:10:50;95094.00;;;19.98;52.69
79686;BME280;69153;47.918;11.428;2023-05-07T08:13:17;95089.19;;;20.14;51.27
79686;BME280;69153;47.918;11.428;2023-05-07T08:15:43;95101.81;;;20.39;50.53
79686;BME280;69153;47.918;11.428;2023-05-07T08:18:08;95096.25;;;20.54;49.02
79686;BME280;69153;47.918;11.428;2023-05-07T08:20:35;95093.13;;;20.61;49.32
79686;BME280;69153;47.918;11.428;2023-05-07T08:23:05;95099.97;;;20.62;48.98
79686;BME280;69153;47.918;11.428;2023-05-07T08:25:33;95100.72;;;20.68;48.61
79686;BME280;69153;47.918;11.428;2023-05-07T08:27:58;95098.06;;;20.74;49.04
79686;BME280;69153;47.918;11.428;2023-05-07T08:30:24;95100.53;;;20.83;47.69
79686;BME280;69153;47.918;11.428;2023-05-07T08:32:49;95091.50;;;20.97;47.00
79686;BME280;69153;47.918;11.428;2023-05-07T08:35:15;95091.47;;;20.91;45.99
79686;BME280;69153;47.918;11.428;2023-05-07T08:37:40;95095.38;;;20.79;47.24
79686;BME280;69153;47.918;11.428;2023-05-07T08:40:06;95097.31;;;20.79;48.67
79686;BME280;69153;47.918;11.428;2023-05-07T08:42:35;95094.94;;;20.97;48.04
79686;BME280;69153;47.918;11.428;2023-05-07T08:45:02;95093.69;;;20.93;48.24
79686;BME280;69153;47.918;11.428;2023-05-07T08:47:39;95098.88;;;21.08;47.67
79686;BME280;69153;47.918;11.428;2023-05-07T08:50:06;95101.59;;;21.19;45.35
79686;BME280;69153;47.918;11.428;2023-05-07T08:52:31;95108.16;;;21.01;45.70
79686;BME280;69153;47.918;11.428;2023-05-07T08:54:58;95096.66;;;21.06;46.47
79686;BME280;69153;47.918;11.428;2023-05-07T08:57:24;95093.78;;;21.37;45.77
79686;BME280;69153;47.918;11.428;2023-05-07T08:59:49;95092.25;;;20.97;44.95
79686;BME280;69153;47.918;11.428;2023-05-07T09:02:15;95089.31;;;21.01;45.62
79686;BME280;69153;47.918;11.428;2023-05-07T09:04:41;95099.84;;;21.10;45.56
79686;BME280;69153;47.918;11.428;2023-05-07T09:07:07;95103.09;;;21.31;46.40
79686;BME280;69153;47.918;11.428;2023-05-07T09:09:33;95093.78;;;21.26;45.31
79686;BME280;69153;47.918;11.428;2023-05-07T09:11:59;95099.94;;;21.49;45.32
79686;BME280;69153;47.918;11.428;2023-05-07T09:14:25;95100.88;;;21.68;44.00
79686;BME280;69153;47.918;11.428;2023-05-07T09:16:52;95093.75;;;22.16;42.93
79686;BME280;69153;47.918;11.428;2023-05-07T09:19:22;95097.53;;;22.59;40.92
79686;BME280;69153;47.918;11.428;2023-05-07T09:21:48;95090.44;;;22.51;37.73
79686;BME280;69153;47.918;11.428;2023-05-07T09:24:15;95097.66;;;22.31;39.39
79686;BME280;69153;47.918;11.428;2023-05-07T09:26:41;95090.13;;;22.71;40.02
79686;BME280;69153;47.918;11.428;2023-05-07T09:29:07;95088.44;;;23.14;37.74
79686;BME280;69153;47.918;11.428;2023-05-07T09:31:37;95095.66;;;23.01;37.49
79686;BME280;69153;47.918;11.428;2023-05-07T09:34:04;95085.16;;;22.86;34.87
79686;BME280;69153;47.918;11.428;2023-05-07T09:36:31;95094.09;;;23.11;36.58
79686;BME280;69153;47.918;11.428;2023-05-07T09:38:59;95086.22;;;23.54;37.23
79686;BME280;69153;47.918;11.428;2023-05-07T09:41:26;95083.25;;;23.58;38.60
79686;BME280;69153;47.918;11.428;2023-05-07T09:43:55;95080.28;;;23.61;40.37
79686;BME280;69153;47.918;11.428;2023-05-07T09:46:27;95081.41;;;23.71;38.80
79686;BME280;69153;47.918;11.428;2023-05-07T09:48:57;95086.69;;;23.88;39.61
79686;BME280;69153;47.918;11.428;2023-05-07T09:51:50;95077.25;;;23.95;37.49
79686;BME280;69153;47.918;11.428;2023-05-07T09:54:17;95080.00;;;23.89;38.10
79686;BME280;69153;47.918;11.428;2023-05-07T09:56:44;95081.94;;;23.94;38.77
79686;BME280;69153;47.918;11.428;2023-05-07T09:59:13;95076.53;;;23.94;39.27
79686;BME280;69153;47.918;11.428;2023-05-07T10:01:41;95077.66;;;24.04;38.69
79686;BME280;69153;47.918;11.428;2023-05-07T10:04:07;95085.09;;;23.98;37.61
79686;BME280;69153;47.918;11.428;2023-05-07T10:06:36;95080.59;;;24.06;37.42
79686;BME280;69153;47.918;11.428;2023-05-07T10:09:03;95084.66;;;23.94;36.84
79686;BME280;69153;47.918;11.428;2023-05-07T10:11:32;95087.41;;;23.89;35.48
79686;BME280;69153;47.918;11.428;2023-05-07T10:13:59;95087.19;;;24.11;37.14
79686;BME280;69153;47.918;11.428;2023-05-07T10:16:25;95087.97;;;23.51;36.82
79686;BME280;69153;47.918;11.428;2023-05-07T10:18:51;95084.41;;;23.92;37.50
79686;BME280;69153;47.918;11.428;2023-05-07T10:21:19;95091.81;;;24.16;37.97
79686;BME280;69153;47.918;11.428;2023-05-07T10:23:45;95082.63;;;24.00;37.90
79686;BME280;69153;47.918;11.428;2023-05-07T10:26:15;95088.84;;;23.65;38.80
79686;BME280;69153;47.918;11.428;2023-05-07T10:28:45;95083.06;;;23.80;37.59
79686;BME280;69153;47.918;11.428;2023-05-07T10:31:26;95074.91;;;24.10;38.03
79686;BME280;69153;47.918;11.428;2023-05-07T10:33:59;95087.34;;;23.94;37.16
79686;BME280;69153;47.918;11.428;2023-05-07T10:36:27;95084.75;;;23.53;37.28
79686;BME280;69153;47.918;11.428;2023-05-07T10:38:53;95091.09;;;23.61;37.13
79686;BME280;69153;47.918;11.428;2023-05-07T10:41:19;95081.34;;;23.77;37.06
79686;BME280;69153;47.918;11.428;2023-05-07T10:43:46;95081.44;;;23.96;37.47
79686;BME280;69153;47.918;11.428;2023-05-07T10:46:15;95083.91;;;24.42;37.27
79686;BME280;69153;47.918;11.428;2023-05-07T10:51:26;95089.91;;;24.35;36.87
79686;BME280;69153;47.918;11.428;2023-05-07T10:56:40;95088.22;;;24.75;36.10
79686;BME280;69153;47.918;11.428;2023-05-07T11:01:56;95084.50;;;24.97;35.11
79686;BME280;69153;47.918;11.428;2023-05-07T11:04:27;95084.28;;;24.95;36.26
79686;BME280;69153;47.918;11.428;2023-05-07T11:15:05;95069.13;;;25.37;34.92
79686;BME280;69153;47.918;11.428;2023-05-07T11:17:32;95087.38;;;25.05;34.29
79686;BME280;69153;47.918;11.428;2023-05-07T11:20:01;95078.75;;;24.82;34.26
79686;BME280;69153;47.918;11.428;2023-05-07T11:25:03;95070.72;;;24.76;34.94
79686;BME280;69153;47.918;11.428;2023-05-07T11:27:29;95070.47;;;24.55;34.71
79686;BME280;69153;47.918;11.428;2023-05-07T11:29:55;95059.25;;;24.21;34.44
79686;BME280;69153;47.918;11.428;2023-05-07T11:32:25;95066.53;;;23.83;35.07
79686;BME280;69153;47.918;11.428;2023-05-07T11:34:52;95052.75;;;23.87;34.61
79686;BME280;69153;47.918;11.428;2023-05-07T11:37:19;95059.00;;;24.01;34.74
79686;BME280;69153;47.918;11.428;2023-05-07T11:39:45;95054.22;;;23.88;35.55
79686;BME280;69153;47.918;11.428;2023-05-07T11:42:37;95053.75;;;24.33;35.79
79686;BME280;69153;47.918;11.428;2023-05-07T11:45:03;95067.66;;;24.42;35.42
79686;BME280;69153;47.918;11.428;2023-05-07T11:47:32;95055.03;;;24.50;34.97
79686;BME280;69153;47.918;11.428;2023-05-07T11:50:04;95059.72;;;24.87;35.22
79686;BME280;69153;47.918;11.428;2023-05-07T11:52:30;95064.72;;;25.02;33.86
79686;BME280;69153;47.918;11.428;2023-05-07T11:54:58;95061.78;;;25.00;34.49
79686;BME280;69153;47.918;11.428;2023-05-07T11:57:26;95060.38;;;24.75;32.61
79686;BME280;69153;47.918;11.428;2023-05-07T11:59:59;95058.84;;;24.79;34.29
79686;BME280;69153;47.918;11.428;2023-05-07T12:02:27;95054.22;;;24.74;34.77
79686;BME280;69153;47.918;11.428;2023-05-07T12:04:53;95045.50;;;24.81;34.04
79686;BME280;69153;47.918;11.428;2023-05-07T12:07:20;95048.22;;;24.63;34.47
79686;BME280;69153;47.918;11.428;2023-05-07T12:09:46;95040.88;;;24.57;33.78
79686;BME280;69153;47.918;11.428;2023-05-07T12:12:13;95034.31;;;24.72;34.76
79686;BME280;69153;47.918;11.428;2023-05-07T12:14:44;95039.59;;;24.64;35.40
79686;BME280;69153;47.918;11.428;2023-05-07T12:17:11;95041.41;;;24.75;35.26
79686;BME280;69153;47.918;11.428;2023-05-07T12:19:39;95032.91;;;24.84;34.15
79686;BME280;69153;47.918;11.428;2023-05-07T12:22:10;95035.63;;;24.46;34.87
79686;BME280;69153;47.918;11.428;2023-05-07T12:27:09;95032.53;;;24.74;34.36
79686;BME280;69153;47.918;11.428;2023-05-07T12:29:34;95031.50;;;24.58;34.68
79686;BME280;69153;47.918;11.428;2023-05-07T12:32:00;95029.03;;;24.17;34.83
79686;BME280;69153;47.918;11.428;2023-05-07T12:34:25;95032.53;;;24.12;35.09
79686;BME280;69153;47.918;11.428;2023-05-07T12:36:51;95025.31;;;24.20;35.24
79686;BME280;69153;47.918;11.428;2023-05-07T12:39:16;95022.13;;;24.41;35.05
79686;BME280;69153;47.918;11.428;2023-05-07T12:41:55;95019.94;;;24.77;34.92
79686;BME280;69153;47.918;11.428;2023-05-07T12:44:28;95030.06;;;24.76;34.78
79686;BME280;69153;47.918;11.428;2023-05-07T12:46:54;95025.22;;;24.69;34.54
79686;BME280;69153;47.918;11.428;2023-05-07T12:49:20;95026.22;;;24.04;34.53
79686;BME280;69153;47.918;11.428;2023-05-07T12:51:49;95022.00;;;23.84;34.79
79686;BME280;69153;47.918;11.428;2023-05-07T12:54:35;95012.91;;;24.06;35.46
79686;BME280;69153;47.918;11.428;2023-05-07T12:57:05;95014.78;;;23.93;37.52
79686;BME280;69153;47.918;11.428;2023-05-07T12:59:39;95018.63;;;23.78;38.39
79686;BME280;69153;47.918;11.428;2023-05-07T13:02:05;95017.09;;;23.83;38.11
79686;BME280;69153;47.918;11.428;2023-05-07T13:04:31;95021.94;;;23.90;38.29
79686;BME280;69153;47.918;11.428;2023-05-07T13:06:58;95020.69;;;23.67;37.80
79686;BME280;69153;47.918;11.428;2023-05-07T13:09:23;95024.75;;;23.79;38.08